Time;durP1;ratioP1;P1;durP2;ratioP2;P2;SDS_P1;SDS_P2;PMS_P1;PMS_P2;Temp;Humidity;BMP_temperature;BMP_pressure;BME280_temperature;BME280_humidity;BME280_pressure;Samples;Min_cycle;Max_cycle;Signal;HPM_P1;HPM_P2
2022/04/24 00:01:56;;;;;;;9.68;6.75;;;;;;;;;;5104790;28;20041;-73
2022/04/24 00:04:24;;;;;;;11.10;6.72;;;;;;;;;;5104759;28;20119;-73
2022/04/24 00:06:52;;;;;;;11.68;7.13;;;;;;;;;;5105957;28;20054;-74
2022/04/24 00:09:18;;;;;;;10.23;6.95;;;;;;;;;;5103200;28;20067;-72
2022/04/24 00:11:44;;;;;;;11.52;7.13;;;;;;;;;;5107402;28;20045;-72
2022/04/24 00:14:11;;;;;;;12.50;7.15;;;;;;;;;;5084855;28;20040;-72
2022/04/24 00:16:37;;;;;;;10.20;7.15;;;;;;;;;;5100420;28;20040;-72
2022/04/24 00:19:04;;;;;;;11.48;7.13;;;;;;;;;;5103111;28;20561;-73
2022/04/24 00:21:30;;;;;;;9.23;7.07;;;;;;;;;;5104080;28;20044;-72
2022/04/24 00:23:56;;;;;;;12.75;7.22;;;;;;;;;;5101838;28;20094;-74
2022/04/24 00:26:23;;;;;;;9.82;7.07;;;;;;;;;;5100662;28;20032;-72
2022/04/24 00:28:49;;;;;;;12.90;7.47;;;;;;;;;;5104757;28;20051;-72
2022/04/24 00:31:15;;;;;;;10.00;6.93;;;;;;;;;;5103551;28;20036;-74
2022/04/24 00:33:41;;;;;;;11.00;7.18;;;;;;;;;;5106979;28;20111;-73
2022/04/24 00:36:07;;;;;;;10.57;7.20;;;;;;;;;;5102626;28;20597;-73
2022/04/24 00:38:34;;;;;;;10.50;7.20;;;;;;;;;;5103826;28;20126;-73
2022/04/24 00:40:59;;;;;;;10.35;6.65;;;;;;;;;;5104053;28;20059;-73
2022/04/24 00:43:25;;;;;;;14.57;7.97;;;;;;;;;;5107177;28;20051;-73
2022/04/24 00:46:00;;;;;;;9.45;6.65;;;;;;;;;;5106349;28;20039;-73
2022/04/24 00:48:26;;;;;;;10.82;7.13;;;;;;;;;;5083870;28;20040;-71
2022/04/24 00:50:53;;;;;;;11.35;7.45;;;;;;;;;;5103836;28;20044;-73
2022/04/24 00:53:19;;;;;;;9.57;7.40;;;;;;;;;;5105976;28;20036;-72
2022/04/24 00:55:45;;;;;;;10.90;7.13;;;;;;;;;;5105965;28;20036;-72
2022/04/24 00:58:11;;;;;;;9.60;7.07;;;;;;;;;;5102899;28;20040;-72
2022/04/24 01:00:38;;;;;;;10.70;7.18;;;;;;;;;;5105076;28;20043;-72
2022/04/24 01:03:04;;;;;;;10.38;7.25;;;;;;;;;;5108347;28;20047;-72
2022/04/24 01:05:30;;;;;;;13.35;7.22;;;;;;;;;;5103966;28;20055;-73
2022/04/24 01:07:56;;;;;;;13.23;7.72;;;;;;;;;;5083055;28;20044;-72
2022/04/24 01:10:22;;;;;;;11.88;6.90;;;;;;;;;;5085411;28;20035;-73
2022/04/24 01:12:48;;;;;;;11.75;7.10;;;;;;;;;;5101951;28;20050;-73
2022/04/24 01:15:14;;;;;;;9.73;7.43;;;;;;;;;;5083916;28;20394;-73
2022/04/24 01:17:40;;;;;;;10.05;7.00;;;;;;;;;;5100558;28;20048;-72
2022/04/24 01:20:07;;;;;;;9.82;6.95;;;;;;;;;;5099073;28;20402;-72
2022/04/24 01:22:33;;;;;;;11.43;7.20;;;;;;;;;;5101441;28;20048;-72
2022/04/24 01:24:59;;;;;;;11.05;7.85;;;;;;;;;;5101985;28;20036;-72
2022/04/24 01:27:25;;;;;;;9.45;6.80;;;;;;;;;;5101645;28;20051;-73
2022/04/24 01:29:51;;;;;;;9.70;7.55;;;;;;;;;;5083397;28;20048;-73
2022/04/24 01:32:17;;;;;;;9.32;6.93;;;;;;;;;;5104273;28;20051;-73
2022/04/24 01:34:43;;;;;;;11.30;7.43;;;;;;;;;;5119420;28;20044;-73
2022/04/24 01:37:09;;;;;;;14.02;7.05;;;;;;;;;;5118495;28;20042;-73
2022/04/24 01:39:35;;;;;;;11.30;7.88;;;;;;;;;;5105376;28;20047;-73
2022/04/24 01:42:01;;;;;;;10.75;7.78;;;;;;;;;;5119621;28;20040;-73
2022/04/24 01:44:27;;;;;;;11.85;7.85;;;;;;;;;;5123220;28;20089;-73
2022/04/24 01:46:54;;;;;;;10.93;8.10;;;;;;;;;;5102402;28;20043;-73
2022/04/24 01:49:20;;;;;;;12.63;8.15;;;;;;;;;;5122622;28;20100;-73
2022/04/24 01:51:48;;;;;;;10.98;7.82;;;;;;;;;;5127656;28;20036;-73
2022/04/24 01:54:13;;;;;;;10.85;7.60;;;;;;;;;;5116502;28;20035;-72
2022/04/24 01:56:39;;;;;;;12.52;7.45;;;;;;;;;;5128910;28;20550;-73
2022/04/24 01:59:05;;;;;;;9.30;7.30;;;;;;;;;;5127963;28;20040;-73
2022/04/24 02:01:31;;;;;;;12.18;8.18;;;;;;;;;;5127356;28;20047;-72
2022/04/24 02:03:57;;;;;;;11.98;8.30;;;;;;;;;;5128738;28;20039;-73
2022/04/24 02:06:23;;;;;;;10.15;7.45;;;;;;;;;;5128993;28;20041;-73
2022/04/24 02:08:49;;;;;;;10.73;7.65;;;;;;;;;;5129956;28;20044;-71
2022/04/24 02:11:15;;;;;;;10.88;8.48;;;;;;;;;;5129808;28;20065;-72
2022/04/24 02:13:41;;;;;;;13.35;8.75;;;;;;;;;;5111882;28;20062;-72
2022/04/24 02:16:07;;;;;;;12.70;8.20;;;;;;;;;;5129638;28;20035;-73
2022/04/24 02:18:33;;;;;;;11.75;8.95;;;;;;;;;;5132500;28;20050;-72
2022/04/24 02:20:59;;;;;;;11.85;8.73;;;;;;;;;;5123643;28;20103;-72
2022/04/24 02:23:25;;;;;;;12.65;8.93;;;;;;;;;;5120566;28;20040;-72
2022/04/24 02:25:51;;;;;;;12.20;9.05;;;;;;;;;;5114709;28;20413;-73
2022/04/24 02:28:17;;;;;;;12.63;10.13;;;;;;;;;;5132533;28;20035;-72
2022/04/24 02:30:43;;;;;;;11.43;9.40;;;;;;;;;;5132309;28;20480;-72
2022/04/24 02:33:09;;;;;;;11.98;9.32;;;;;;;;;;5133517;28;20115;-73
2022/04/24 02:35:35;;;;;;;12.73;8.95;;;;;;;;;;5135313;28;20108;-71
2022/04/24 02:38:01;;;;;;;10.88;8.13;;;;;;;;;;5134983;28;20047;-72
2022/04/24 02:40:28;;;;;;;11.50;8.38;;;;;;;;;;5128563;28;20087;-72
2022/04/24 02:42:54;;;;;;;12.93;8.90;;;;;;;;;;5085363;28;20062;-73
2022/04/24 02:45:20;;;;;;;11.48;8.68;;;;;;;;;;5109685;28;20043;-72
2022/04/24 02:47:47;;;;;;;11.35;9.30;;;;;;;;;;5130451;28;20044;-73
2022/04/24 02:50:13;;;;;;;15.18;9.45;;;;;;;;;;5129508;28;20047;-73
2022/04/24 02:52:46;;;;;;;13.00;9.38;;;;;;;;;;5127943;28;20043;-72
2022/04/24 02:55:12;;;;;;;12.57;9.25;;;;;;;;;;5110656;28;20032;-74
2022/04/24 02:57:38;;;;;;;12.57;9.93;;;;;;;;;;5110826;28;20040;-72
2022/04/24 03:00:04;;;;;;;12.02;9.18;;;;;;;;;;5109715;28;20039;-73
2022/04/24 03:02:30;;;;;;;14.73;9.45;;;;;;;;;;5127408;28;20073;-74
2022/04/24 03:04:56;;;;;;;11.90;8.95;;;;;;;;;;5132362;28;20043;-73
2022/04/24 03:07:22;;;;;;;12.38;9.75;;;;;;;;;;5131512;28;20040;-72
2022/04/24 03:09:48;;;;;;;14.32;9.40;;;;;;;;;;5132550;28;20047;-72
2022/04/24 03:12:14;;;;;;;14.43;10.02;;;;;;;;;;5125975;28;20044;-73
2022/04/24 03:14:40;;;;;;;11.48;9.65;;;;;;;;;;5119013;28;20667;-73
2022/04/24 03:17:06;;;;;;;12.73;10.55;;;;;;;;;;5131399;28;20028;-72
2022/04/24 03:19:33;;;;;;;11.95;9.77;;;;;;;;;;5131195;28;20049;-73
2022/04/24 03:21:59;;;;;;;13.27;9.45;;;;;;;;;;5111677;28;20068;-72
2022/04/24 03:24:25;;;;;;;13.27;10.60;;;;;;;;;;5130466;28;20505;-73
2022/04/24 03:26:51;;;;;;;12.52;9.70;;;;;;;;;;5129505;28;20043;-72
2022/04/24 03:29:17;;;;;;;11.77;9.38;;;;;;;;;;5130646;28;20128;-72
2022/04/24 03:31:43;;;;;;;12.10;10.00;;;;;;;;;;5129150;28;20036;-72
2022/04/24 03:34:09;;;;;;;12.85;10.25;;;;;;;;;;5130071;28;20051;-73
2022/04/24 03:36:34;;;;;;;12.32;9.10;;;;;;;;;;5119253;28;20044;-72
2022/04/24 03:39:00;;;;;;;12.40;10.00;;;;;;;;;;5127714;28;20039;-72
2022/04/24 03:41:26;;;;;;;13.95;10.02;;;;;;;;;;5125232;28;20047;-72
2022/04/24 03:43:52;;;;;;;12.45;9.00;;;;;;;;;;5131011;28;20067;-73
2022/04/24 03:46:18;;;;;;;13.25;10.60;;;;;;;;;;5129049;28;20103;-72
2022/04/24 03:48:44;;;;;;;12.52;8.75;;;;;;;;;;5114090;28;20401;-71
2022/04/24 03:51:10;;;;;;;17.45;10.55;;;;;;;;;;5129016;28;20035;-71
2022/04/24 03:53:36;;;;;;;13.15;9.82;;;;;;;;;;5131804;28;20043;-72
2022/04/24 03:56:02;;;;;;;13.70;9.75;;;;;;;;;;5094051;28;20050;-73
2022/04/24 03:58:28;;;;;;;15.25;10.05;;;;;;;;;;5127784;28;20089;-72
2022/04/24 04:00:55;;;;;;;13.50;10.43;;;;;;;;;;5127942;28;20039;-72
2022/04/24 04:03:21;;;;;;;12.73;9.95;;;;;;;;;;5132354;28;20040;-72
2022/04/24 04:05:47;;;;;;;12.38;8.60;;;;;;;;;;5130070;28;20068;-72
2022/04/24 04:08:13;;;;;;;15.05;11.00;;;;;;;;;;5132415;28;20051;-72
2022/04/24 04:10:39;;;;;;;12.65;9.70;;;;;;;;;;5126610;28;20077;-72
2022/04/24 04:13:06;;;;;;;12.40;9.73;;;;;;;;;;5130357;28;20055;-73
2022/04/24 04:15:32;;;;;;;15.23;10.88;;;;;;;;;;5128596;28;20047;-72
2022/04/24 04:17:58;;;;;;;13.38;10.55;;;;;;;;;;5127869;28;20047;-71
2022/04/24 04:20:25;;;;;;;13.45;9.45;;;;;;;;;;5129527;28;20039;-72
2022/04/24 04:22:51;;;;;;;16.42;9.95;;;;;;;;;;5129058;28;20095;-73
2022/04/24 04:25:21;;;;;;;15.45;10.80;;;;;;;;;;5129849;28;20047;-72
2022/04/24 04:27:48;;;;;;;13.05;9.85;;;;;;;;;;5110395;28;20073;-72
2022/04/24 04:30:14;;;;;;;13.82;9.40;;;;;;;;;;5126658;28;20068;-72
2022/04/24 04:32:40;;;;;;;13.25;9.90;;;;;;;;;;5122471;28;20112;-73
2022/04/24 04:35:09;;;;;;;13.80;9.43;;;;;;;;;;5114095;28;20391;-73
2022/04/24 04:37:35;;;;;;;14.73;10.05;;;;;;;;;;5129746;28;20095;-73
2022/04/24 04:40:02;;;;;;;13.68;9.43;;;;;;;;;;5110084;28;20500;-73
2022/04/24 04:42:28;;;;;;;12.43;10.10;;;;;;;;;;5110972;28;20035;-73
2022/04/24 04:44:56;;;;;;;15.73;9.68;;;;;;;;;;5123809;28;20109;-73
2022/04/24 04:47:22;;;;;;;13.38;9.32;;;;;;;;;;5110750;28;20044;-73
2022/04/24 04:49:48;;;;;;;15.38;9.43;;;;;;;;;;5115026;28;20117;-72
2022/04/24 04:52:14;;;;;;;13.50;9.00;;;;;;;;;;5126134;28;20135;-72
2022/04/24 04:54:40;;;;;;;15.10;10.23;;;;;;;;;;5132219;28;20045;-72
2022/04/24 04:57:06;;;;;;;14.52;9.80;;;;;;;;;;5130381;28;20086;-72
2022/04/24 04:59:33;;;;;;;11.32;8.45;;;;;;;;;;5131743;28;20035;-72
2022/04/24 05:01:59;;;;;;;13.48;9.20;;;;;;;;;;5128946;28;20050;-73
2022/04/24 05:04:25;;;;;;;13.10;9.10;;;;;;;;;;5133713;28;20050;-73
2022/04/24 05:06:51;;;;;;;13.07;9.15;;;;;;;;;;5133195;28;20039;-72
2022/04/24 05:09:17;;;;;;;12.48;8.95;;;;;;;;;;5131826;28;20042;-72
2022/04/24 05:11:43;;;;;;;12.95;9.10;;;;;;;;;;5125094;28;20044;-73
2022/04/24 05:14:09;;;;;;;15.27;9.52;;;;;;;;;;5133496;28;20031;-73
2022/04/24 05:16:35;;;;;;;13.10;9.25;;;;;;;;;;5130267;28;20135;-73
2022/04/24 05:19:03;;;;;;;10.98;8.90;;;;;;;;;;5132607;28;20142;-73
2022/04/24 05:21:29;;;;;;;14.27;8.80;;;;;;;;;;5133057;28;20050;-72
2022/04/24 05:23:55;;;;;;;13.90;9.40;;;;;;;;;;5112662;28;20040;-73
2022/04/24 05:26:21;;;;;;;11.13;8.98;;;;;;;;;;5133896;28;20060;-74
2022/04/24 05:28:47;;;;;;;12.80;8.75;;;;;;;;;;5127381;28;20050;-72
2022/04/24 05:31:14;;;;;;;12.10;8.13;;;;;;;;;;5124751;28;20071;-74
2022/04/24 05:33:40;;;;;;;14.07;9.30;;;;;;;;;;5126200;28;20080;-73
2022/04/24 05:36:06;;;;;;;12.13;8.25;;;;;;;;;;5115996;28;20401;-72
2022/04/24 05:38:32;;;;;;;15.80;9.60;;;;;;;;;;5133796;28;20036;-73
2022/04/24 05:40:58;;;;;;;13.68;8.90;;;;;;;;;;5123947;28;20062;-72
2022/04/24 05:43:24;;;;;;;12.88;9.30;;;;;;;;;;5135292;28;20027;-72
2022/04/24 05:45:50;;;;;;;15.20;9.88;;;;;;;;;;5136578;28;20024;-73
2022/04/24 05:48:18;;;;;;;12.45;9.27;;;;;;;;;;5136032;28;20050;-72
2022/04/24 05:50:44;;;;;;;12.70;9.55;;;;;;;;;;5118181;28;20098;-73
2022/04/24 05:53:10;;;;;;;14.40;8.98;;;;;;;;;;5135748;28;20099;-73
2022/04/24 05:55:36;;;;;;;13.30;9.23;;;;;;;;;;5126851;28;20082;-73
2022/04/24 05:58:03;;;;;;;15.18;9.70;;;;;;;;;;5128808;28;20047;-73
2022/04/24 06:00:29;;;;;;;13.73;9.20;;;;;;;;;;5132421;28;20028;-73
2022/04/24 06:02:55;;;;;;;14.00;9.57;;;;;;;;;;5118934;28;20051;-72
2022/04/24 06:05:21;;;;;;;13.25;9.05;;;;;;;;;;5119468;28;20094;-73
2022/04/24 06:07:48;;;;;;;12.15;8.65;;;;;;;;;;5132117;28;20100;-73
2022/04/24 06:10:13;;;;;;;13.10;8.65;;;;;;;;;;5126478;28;20058;-73
2022/04/24 06:12:49;;;;;;;14.05;9.18;;;;;;;;;;5130571;28;20099;-73
2022/04/24 06:15:15;;;;;;;14.63;8.65;;;;;;;;;;5120312;28;20048;-74
2022/04/24 06:17:49;;;;;;;15.15;8.43;;;;;;;;;;5121753;28;20035;-72
2022/04/24 06:20:15;;;;;;;12.30;8.55;;;;;;;;;;5124286;28;20027;-73
2022/04/24 06:22:45;;;;;;;12.70;8.95;;;;;;;;;;5118450;28;20052;-72
2022/04/24 06:25:16;;;;;;;11.55;9.25;;;;;;;;;;5109024;28;20036;-73
2022/04/24 06:27:42;;;;;;;13.27;9.90;;;;;;;;;;5112970;28;20048;-72
2022/04/24 06:30:08;;;;;;;12.57;8.30;;;;;;;;;;5130207;28;20051;-72
2022/04/24 06:32:38;;;;;;;12.07;8.80;;;;;;;;;;5095047;28;20048;-72
2022/04/24 06:35:05;;;;;;;11.52;8.43;;;;;;;;;;5122160;28;20044;-72
2022/04/24 06:37:31;;;;;;;13.98;8.57;;;;;;;;;;5116273;28;20047;-73
2022/04/24 06:39:57;;;;;;;15.13;9.05;;;;;;;;;;5134221;28;20057;-73
2022/04/24 06:42:23;;;;;;;12.02;8.32;;;;;;;;;;5135061;28;20044;-72
2022/04/24 06:44:49;;;;;;;11.68;8.43;;;;;;;;;;5111962;28;20398;-73
2022/04/24 06:47:15;;;;;;;12.00;8.38;;;;;;;;;;5132885;28;20040;-73
2022/04/24 06:49:41;;;;;;;10.90;7.65;;;;;;;;;;5115147;28;20396;-73
2022/04/24 06:52:07;;;;;;;13.30;8.50;;;;;;;;;;5126903;28;20038;-74
2022/04/24 06:54:33;;;;;;;11.52;7.60;;;;;;;;;;5113391;28;20132;-73
2022/04/24 06:57:01;;;;;;;13.10;7.28;;;;;;;;;;5117646;28;20098;-72
2022/04/24 06:59:28;;;;;;;12.25;8.13;;;;;;;;;;5110999;28;20086;-72
2022/04/24 07:01:54;;;;;;;12.23;8.00;;;;;;;;;;5111048;28;20065;-72
2022/04/24 07:04:20;;;;;;;9.82;6.78;;;;;;;;;;5107691;28;20054;-72
2022/04/24 07:06:46;;;;;;;11.15;6.90;;;;;;;;;;5128885;28;20048;-73
2022/04/24 07:09:12;;;;;;;16.90;9.40;;;;;;;;;;5130198;28;20036;-72
2022/04/24 07:11:40;;;;;;;13.85;6.85;;;;;;;;;;5124733;28;20043;-73
2022/04/24 07:14:06;;;;;;;9.88;6.10;;;;;;;;;;5093815;28;20103;-72
2022/04/24 07:16:34;;;;;;;13.10;6.32;;;;;;;;;;5125231;28;20464;-73
2022/04/24 07:19:00;;;;;;;11.23;6.35;;;;;;;;;;5127143;28;20075;-74
2022/04/24 07:21:26;;;;;;;11.90;6.07;;;;;;;;;;5122364;28;20511;-73
2022/04/24 07:23:52;;;;;;;8.07;5.50;;;;;;;;;;5123101;28;20042;-73
2022/04/24 07:26:18;;;;;;;9.05;4.35;;;;;;;;;;5118663;28;20122;-73
2022/04/24 07:28:44;;;;;;;12.48;5.20;;;;;;;;;;5112141;28;20123;-73
2022/04/24 07:31:13;;;;;;;9.13;5.15;;;;;;;;;;5120740;28;20412;-73
2022/04/24 07:33:39;;;;;;;11.55;5.03;;;;;;;;;;5112201;28;20472;-73
2022/04/24 07:36:05;;;;;;;9.70;5.47;;;;;;;;;;5105603;28;20055;-72
2022/04/24 07:38:31;;;;;;;9.13;4.22;;;;;;;;;;5088254;28;20170;-73
2022/04/24 07:40:58;;;;;;;12.13;4.43;;;;;;;;;;5106507;28;20089;-73
2022/04/24 07:43:25;;;;;;;7.78;3.95;;;;;;;;;;5090942;28;20041;-73
2022/04/24 07:45:51;;;;;;;7.03;4.03;;;;;;;;;;5067127;28;20044;-73
2022/04/24 07:48:17;;;;;;;7.07;3.97;;;;;;;;;;5107185;28;20076;-73
2022/04/24 07:50:50;;;;;;;8.07;4.25;;;;;;;;;;5088655;28;20036;-73
2022/04/24 07:53:17;;;;;;;8.27;4.28;;;;;;;;;;5105855;28;20126;-73
2022/04/24 07:55:44;;;;;;;8.35;3.92;;;;;;;;;;5083306;28;20072;-73
2022/04/24 07:58:10;;;;;;;7.43;3.70;;;;;;;;;;5106785;28;20040;-73
2022/04/24 08:00:37;;;;;;;7.03;3.60;;;;;;;;;;5106377;28;20051;-73
2022/04/24 08:03:04;;;;;;;7.55;3.42;;;;;;;;;;5103997;28;20056;-73
2022/04/24 08:05:31;;;;;;;9.27;3.35;;;;;;;;;;5103965;28;20048;-73
2022/04/24 08:07:59;;;;;;;6.55;3.45;;;;;;;;;;5085422;28;20051;-73
2022/04/24 08:10:26;;;;;;;7.28;3.53;;;;;;;;;;5102922;28;20096;-73
2022/04/24 08:12:53;;;;;;;7.60;3.35;;;;;;;;;;5099931;28;20071;-73
2022/04/24 08:15:19;;;;;;;5.72;2.65;;;;;;;;;;5103105;28;20095;-73
2022/04/24 08:17:45;;;;;;;6.78;2.88;;;;;;;;;;5103128;28;20043;-72
2022/04/24 08:20:13;;;;;;;6.45;2.95;;;;;;;;;;5103221;28;20379;-72
2022/04/24 08:22:42;;;;;;;6.40;2.88;;;;;;;;;;5103749;28;20047;-73
2022/04/24 08:25:09;;;;;;;5.55;2.78;;;;;;;;;;5099879;28;20040;-73
2022/04/24 08:27:35;;;;;;;6.53;2.40;;;;;;;;;;5087153;28;20047;-72
2022/04/24 08:30:02;;;;;;;7.53;2.60;;;;;;;;;;5084999;28;20032;-73
2022/04/24 08:32:28;;;;;;;7.25;3.20;;;;;;;;;;5089125;28;20056;-72
2022/04/24 08:34:56;;;;;;;5.93;2.97;;;;;;;;;;5088240;28;20078;-73
2022/04/24 08:37:23;;;;;;;5.63;2.40;;;;;;;;;;5121889;27;20040;-73
2022/04/24 08:39:49;;;;;;;7.30;3.53;;;;;;;;;;5118698;28;20137;-72
2022/04/24 08:42:21;;;;;;;5.97;2.47;;;;;;;;;;5116948;28;20039;-72
2022/04/24 08:44:47;;;;;;;6.15;2.90;;;;;;;;;;5101797;28;20056;-73
2022/04/24 08:47:15;;;;;;;6.57;2.50;;;;;;;;;;5098323;28;20093;-74
2022/04/24 08:49:42;;;;;;;10.43;2.92;;;;;;;;;;5121590;28;20097;-74
2022/04/24 08:52:09;;;;;;;6.35;2.72;;;;;;;;;;5102088;28;20054;-73
2022/04/24 08:54:35;;;;;;;6.45;2.45;;;;;;;;;;5104184;28;20079;-73
2022/04/24 08:57:01;;;;;;;6.32;2.63;;;;;;;;;;5121814;28;20048;-74
2022/04/24 08:59:27;;;;;;;6.53;2.88;;;;;;;;;;5115091;28;20048;-77
2022/04/24 09:01:58;;;;;;;7.07;2.83;;;;;;;;;;5104631;28;20392;-74
2022/04/24 09:04:24;;;;;;;6.87;2.90;;;;;;;;;;5088266;28;20032;-73
2022/04/24 09:07:00;;;;;;;5.75;2.50;;;;;;;;;;5122580;28;20052;-73
2022/04/24 09:09:26;;;;;;;6.43;2.70;;;;;;;;;;5124110;28;20055;-73
2022/04/24 09:11:52;;;;;;;5.18;2.95;;;;;;;;;;5121487;28;20051;-72
2022/04/24 09:14:19;;;;;;;8.68;3.10;;;;;;;;;;5122010;28;20052;-72
2022/04/24 09:16:49;;;;;;;6.47;2.92;;;;;;;;;;5120302;28;20127;-73
2022/04/24 09:19:22;;;;;;;6.38;2.97;;;;;;;;;;5112960;28;20050;-73
2022/04/24 09:21:49;;;;;;;4.82;2.35;;;;;;;;;;5112747;28;20059;-73
2022/04/24 09:24:15;;;;;;;6.78;2.83;;;;;;;;;;5110435;28;20047;-73
2022/04/24 09:26:50;;;;;;;6.57;3.03;;;;;;;;;;5117028;28;20036;-72
2022/04/24 09:29:16;;;;;;;7.05;2.90;;;;;;;;;;5101480;28;20040;-72
2022/04/24 09:31:46;;;;;;;5.63;2.97;;;;;;;;;;5101432;28;20047;-73
2022/04/24 09:34:13;;;;;;;6.82;2.83;;;;;;;;;;5120648;28;20056;-73
2022/04/24 09:36:39;;;;;;;7.18;2.72;;;;;;;;;;5119450;28;20055;-72
2022/04/24 09:39:05;;;;;;;7.07;3.10;;;;;;;;;;5101908;28;20040;-73
2022/04/24 09:41:31;;;;;;;9.40;3.30;;;;;;;;;;5100494;28;20051;-73
2022/04/24 09:43:57;;;;;;;10.30;3.40;;;;;;;;;;5120216;28;20046;-73
2022/04/24 09:46:25;;;;;;;8.65;3.72;;;;;;;;;;5119301;28;20062;-72
2022/04/24 09:48:52;;;;;;;7.88;3.75;;;;;;;;;;5117290;28;20055;-71
2022/04/24 09:51:18;;;;;;;7.70;3.30;;;;;;;;;;5094064;28;20066;-72
2022/04/24 09:53:44;;;;;;;7.55;3.22;;;;;;;;;;5105723;28;20046;-72
2022/04/24 09:56:11;;;;;;;6.60;3.40;;;;;;;;;;5095946;28;20039;-73
2022/04/24 09:58:37;;;;;;;5.43;2.92;;;;;;;;;;5112324;28;20040;-73
2022/04/24 10:01:06;;;;;;;6.95;3.90;;;;;;;;;;5110840;28;20450;-73
2022/04/24 10:03:34;;;;;;;7.70;3.53;;;;;;;;;;5113126;28;20501;-72
2022/04/24 10:06:02;;;;;;;5.18;2.70;;;;;;;;;;5114498;28;20088;-72
2022/04/24 10:08:28;;;;;;;9.25;3.47;;;;;;;;;;5108116;28;20050;-72
2022/04/24 10:10:55;;;;;;;10.40;3.35;;;;;;;;;;5098397;28;20393;-73
2022/04/24 10:13:22;;;;;;;10.20;3.38;;;;;;;;;;5093132;28;20068;-73
2022/04/24 10:16:11;;;;;;;8.18;3.00;;;;;;;;;;5102196;28;20043;-72
2022/04/24 10:18:43;;;;;;;6.55;3.05;;;;;;;;;;5120918;28;20048;-73
2022/04/24 10:21:28;;;;;;;6.25;3.35;;;;;;;;;;5123727;28;20044;-72
2022/04/24 10:23:55;;;;;;;6.30;3.15;;;;;;;;;;5120617;28;20072;-73
2022/04/24 10:26:22;;;;;;;7.28;3.03;;;;;;;;;;5120214;28;20047;-73
2022/04/24 10:28:48;;;;;;;5.75;2.90;;;;;;;;;;5099926;28;20107;-71
2022/04/24 10:31:15;;;;;;;6.55;3.10;;;;;;;;;;5121615;28;20043;-72
2022/04/24 10:33:54;;;;;;;6.65;3.05;;;;;;;;;;5106213;28;20379;-73
2022/04/24 10:36:21;;;;;;;6.03;2.42;;;;;;;;;;5076510;28;20054;-73
2022/04/24 10:38:49;;;;;;;9.40;3.22;;;;;;;;;;5081780;28;20044;-72
2022/04/24 10:41:16;;;;;;;5.70;2.90;;;;;;;;;;5101944;28;20056;-72
2022/04/24 10:43:46;;;;;;;7.43;3.40;;;;;;;;;;5100948;28;20472;-73
2022/04/24 10:46:19;;;;;;;6.90;3.10;;;;;;;;;;5084018;28;20055;-73
2022/04/24 10:48:46;;;;;;;6.82;2.53;;;;;;;;;;5098603;28;20048;-72
2022/04/24 10:51:13;;;;;;;8.43;2.75;;;;;;;;;;5099979;28;20560;-72
2022/04/24 10:53:52;;;;;;;9.13;2.88;;;;;;;;;;5095366;28;20138;-73
2022/04/24 10:56:19;;;;;;;7.07;3.00;;;;;;;;;;5099068;28;20044;-71
2022/04/24 10:58:45;;;;;;;7.30;3.47;;;;;;;;;;5101735;28;20044;-73
2022/04/24 11:01:15;;;;;;;8.95;4.55;;;;;;;;;;5102088;28;20052;-72
2022/04/24 11:03:41;;;;;;;8.90;3.70;;;;;;;;;;5082299;28;20075;-72
2022/04/24 11:06:20;;;;;;;7.22;3.38;;;;;;;;;;5103021;28;20044;-73
2022/04/24 11:08:46;;;;;;;6.05;3.13;;;;;;;;;;5083477;28;20048;-72
2022/04/24 11:11:16;;;;;;;6.03;3.22;;;;;;;;;;5090717;28;20044;-72
2022/04/24 11:13:42;;;;;;;6.47;3.22;;;;;;;;;;5094686;28;20051;-72
2022/04/24 11:16:08;;;;;;;7.68;3.15;;;;;;;;;;5099548;28;20044;-72
2022/04/24 11:18:36;;;;;;;6.20;2.90;;;;;;;;;;5094092;28;20074;-72
2022/04/24 11:21:03;;;;;;;6.72;3.10;;;;;;;;;;5101041;28;20052;-73
2022/04/24 11:23:33;;;;;;;7.63;3.10;;;;;;;;;;5078697;28;20429;-73
2022/04/24 11:26:02;;;;;;;5.60;2.80;;;;;;;;;;5090192;28;20071;-72
2022/04/24 11:28:35;;;;;;;6.30;2.83;;;;;;;;;;5081174;28;20055;-73
2022/04/24 11:31:08;;;;;;;7.00;3.22;;;;;;;;;;5093936;28;20036;-72
2022/04/24 11:33:35;;;;;;;8.35;3.20;;;;;;;;;;5096339;28;20079;-74
2022/04/24 11:36:05;;;;;;;7.18;3.10;;;;;;;;;;5093179;28;20572;-72
2022/04/24 11:38:31;;;;;;;6.70;2.97;;;;;;;;;;5075221;28;20051;-74
2022/04/24 11:41:03;;;;;;;7.53;3.28;;;;;;;;;;5065373;28;20040;-73
2022/04/24 11:43:29;;;;;;;7.53;2.92;;;;;;;;;;5099166;28;20482;-72
2022/04/24 11:51:26;;;;;;;5.90;2.70;;;;;;;;;;5090562;28;20076;-73
2022/04/24 11:53:54;;;;;;;6.35;2.97;;;;;;;;;;5100966;28;20478;-72
2022/04/24 11:56:20;;;;;;;5.43;2.63;;;;;;;;;;5098429;28;20051;-73
2022/04/24 11:58:48;;;;;;;5.70;2.70;;;;;;;;;;5102870;28;20044;-73
2022/04/24 12:01:17;;;;;;;6.18;2.42;;;;;;;;;;5094860;28;20055;-72
2022/04/24 12:03:44;;;;;;;5.13;2.67;;;;;;;;;;5102093;28;20040;-72
2022/04/24 12:06:11;;;;;;;5.57;2.47;;;;;;;;;;5100350;28;20048;-73
2022/04/24 12:08:41;;;;;;;8.07;2.33;;;;;;;;;;5102827;28;20410;-73
2022/04/24 12:11:07;;;;;;;6.07;2.70;;;;;;;;;;5083260;28;20047;-73
2022/04/24 12:13:34;;;;;;;6.25;2.72;;;;;;;;;;5083771;28;20040;-73
2022/04/24 12:16:00;;;;;;;4.70;2.50;;;;;;;;;;5099308;28;20099;-73
2022/04/24 12:18:28;;;;;;;5.97;2.17;;;;;;;;;;5103385;28;20074;-73
2022/04/24 12:20:55;;;;;;;7.15;2.80;;;;;;;;;;5097658;28;20127;-71
2022/04/24 12:23:22;;;;;;;6.30;2.20;;;;;;;;;;5089885;28;20048;-73
2022/04/24 12:25:56;;;;;;;5.65;2.47;;;;;;;;;;5084708;28;20044;-73
2022/04/24 12:28:35;;;;;;;7.40;2.55;;;;;;;;;;5102410;28;20502;-75
2022/04/24 12:31:02;;;;;;;6.38;3.03;;;;;;;;;;5096197;28;20055;-73
2022/04/24 12:33:28;;;;;;;5.72;3.08;;;;;;;;;;5087927;28;20130;-73
2022/04/24 12:35:55;;;;;;;6.90;2.80;;;;;;;;;;5099533;28;20044;-73
2022/04/24 12:38:22;;;;;;;7.15;2.50;;;;;;;;;;5099023;28;20051;-74
2022/04/24 12:40:59;;;;;;;7.55;2.97;;;;;;;;;;5090553;28;20127;-75
2022/04/24 12:43:29;;;;;;;7.65;3.10;;;;;;;;;;5088066;28;20045;-74
2022/04/24 12:45:55;;;;;;;9.40;3.10;;;;;;;;;;5084296;28;20044;-73
2022/04/24 12:48:23;;;;;;;9.68;3.45;;;;;;;;;;5099575;28;20040;-73
2022/04/24 12:50:50;;;;;;;5.93;2.90;;;;;;;;;;5094999;28;20143;-74
2022/04/24 12:53:16;;;;;;;6.13;2.90;;;;;;;;;;5087574;28;20439;-73
2022/04/24 12:55:42;;;;;;;6.90;2.40;;;;;;;;;;5091423;28;20095;-73
2022/04/24 12:58:14;;;;;;;5.35;2.25;;;;;;;;;;5099139;28;20044;-73
2022/04/24 13:00:40;;;;;;;5.70;2.53;;;;;;;;;;5100433;28;20044;-74
2022/04/24 13:03:08;;;;;;;5.13;2.63;;;;;;;;;;5098668;28;20048;-72
2022/04/24 13:05:35;;;;;;;7.03;2.38;;;;;;;;;;5098306;28;20475;-73
2022/04/24 13:08:01;;;;;;;5.90;2.70;;;;;;;;;;5097830;28;20043;-73
2022/04/24 13:10:27;;;;;;;8.30;3.00;;;;;;;;;;5082432;28;20407;-73
2022/04/24 13:13:00;;;;;;;6.22;2.70;;;;;;;;;;5085730;28;20122;-73
2022/04/24 13:15:26;;;;;;;5.38;2.67;;;;;;;;;;5098796;28;20044;-73
2022/04/24 13:18:07;;;;;;;7.35;2.80;;;;;;;;;;5098168;28;20066;-73
2022/04/24 13:20:40;;;;;;;5.35;2.50;;;;;;;;;;5097147;28;20105;-72
2022/04/24 13:23:15;;;;;;;4.90;2.70;;;;;;;;;;5092675;28;20043;-72
2022/04/24 13:25:41;;;;;;;8.00;2.80;;;;;;;;;;5094328;28;20055;-73
2022/04/24 13:28:08;;;;;;;7.18;2.38;;;;;;;;;;5078975;28;20044;-73
2022/04/24 13:30:34;;;;;;;8.30;2.72;;;;;;;;;;5091034;28;20044;-72
2022/04/24 13:33:01;;;;;;;5.75;2.92;;;;;;;;;;5094859;28;20055;-73
2022/04/24 13:35:27;;;;;;;7.57;3.25;;;;;;;;;;5095280;28;20051;-72
2022/04/24 13:40:38;;;;;;;8.13;2.80;;;;;;;;;;5096039;28;20134;-74
2022/04/24 13:43:05;;;;;;;6.82;3.20;;;;;;;;;;5099389;28;20052;-73
2022/04/24 13:45:33;;;;;;;5.47;2.80;;;;;;;;;;5097705;28;20047;-72
2022/04/24 13:47:59;;;;;;;6.95;2.85;;;;;;;;;;5094107;28;20048;-73
2022/04/24 13:50:25;;;;;;;6.43;2.60;;;;;;;;;;5093035;28;20032;-72
2022/04/24 13:52:51;;;;;;;5.78;2.97;;;;;;;;;;5097131;28;20128;-73
2022/04/24 13:55:17;;;;;;;8.15;3.08;;;;;;;;;;5097510;28;20071;-73
2022/04/24 13:57:44;;;;;;;9.13;2.90;;;;;;;;;;5098904;28;20075;-73
2022/04/24 14:00:11;;;;;;;6.60;3.00;;;;;;;;;;5091413;28;20047;-72
2022/04/24 14:02:37;;;;;;;7.85;3.20;;;;;;;;;;5099283;28;20123;-73
2022/04/24 14:05:04;;;;;;;9.82;2.88;;;;;;;;;;5097015;28;20064;-73
2022/04/24 14:07:30;;;;;;;6.80;3.10;;;;;;;;;;5097921;28;20397;-73
2022/04/24 14:09:56;;;;;;;5.60;2.65;;;;;;;;;;5097330;28;20047;-72
2022/04/24 14:12:22;;;;;;;8.07;3.67;;;;;;;;;;5089557;28;20103;-73
2022/04/24 14:14:48;;;;;;;4.97;2.40;;;;;;;;;;5087716;28;20113;-73
2022/04/24 14:17:14;;;;;;;5.43;3.35;;;;;;;;;;5097520;28;20071;-73
2022/04/24 14:19:40;;;;;;;7.30;3.38;;;;;;;;;;5098091;28;20189;-73
2022/04/24 14:22:06;;;;;;;8.27;3.35;;;;;;;;;;5082982;28;20056;-73
2022/04/24 14:24:32;;;;;;;6.13;3.03;;;;;;;;;;5100257;28;20401;-73
2022/04/24 14:26:58;;;;;;;5.07;2.72;;;;;;;;;;5098300;28;20068;-73
2022/04/24 14:29:27;;;;;;;5.50;3.10;;;;;;;;;;5091791;28;20520;-72
2022/04/24 14:31:55;;;;;;;6.60;2.67;;;;;;;;;;5099676;28;20040;-73
2022/04/24 14:34:21;;;;;;;6.38;3.00;;;;;;;;;;5113890;28;20546;-73
2022/04/24 14:36:47;;;;;;;6.38;2.75;;;;;;;;;;5118455;28;20044;-73
2022/04/24 14:39:13;;;;;;;6.50;3.03;;;;;;;;;;5107958;28;20032;-73
2022/04/24 14:41:39;;;;;;;9.80;3.33;;;;;;;;;;5119804;28;20055;-73
2022/04/24 14:44:05;;;;;;;6.65;3.05;;;;;;;;;;5120187;28;20044;-72